首页
METAR-TAF:

METAR-TAF

机场 :

切尔维亚, 意大利

纬度: 44-13N, 经度: 012-18E, 海拔: 6米

当前天气观测

该预报发布于1小时和6分钟前的19:55 UTC
风速3节,风向南转西南
温度 14°C
湿度 94%
气压 1004 hPa
能见度10公里或以上
散云层高于5000英尺

METAR: LIPC 191955Z 20003KT 9999 SCT050 14/13 Q1004

时间: 23:01 (21:01 UTC)

预报

该预报发布于1小时和1分钟前的20:00 UTC
预报有效从19日的 21点(UTC)到 20日的 06点(UTC)
风速6节,风向西南
能见度10公里或以上
散云层高于2500英尺
散云层高于5000英尺
短暂存在
从 19日的 21点(UTC)到 20日的 06点(UTC)
能見度: 5000
雨, 轻雾

TAF: LIPC 192000Z 1921/2006 23006KT 9999 SCT025 SCT050 TEMPO 1921/2006 5000 RA BR

超过4000个机场的气象观测和天气预报(METAR&TAF报告)。

可查询的气象台以黄色和红色小点在地图上表示。

将鼠标移到小点上方,可查看气象台名称。

然后点击查看天气观测和预报。

如需切换地图:点击带黑十字的绿色按钮放大地图;点击带横线的绿色按钮缩小地图;或者点击绿色箭头查看邻近地区的地图。


METAR-TAF: